createdAt,value
2023-02-14T00:01:12.785Z,-0.19
2023-02-14T00:03:40.271Z,-0.20
2023-02-14T00:06:09.501Z,-0.23
2023-02-14T00:08:36.916Z,-0.16
2023-02-14T00:11:05.455Z,-0.27
2023-02-14T00:13:32.451Z,-0.36
2023-02-14T00:15:59.337Z,-0.29
2023-02-14T00:18:49.185Z,-0.29
2023-02-14T00:21:16.137Z,-0.42
2023-02-14T00:23:43.486Z,-0.33
2023-02-14T00:26:15.172Z,-0.38
2023-02-14T00:28:43.533Z,-0.47
2023-02-14T00:31:10.634Z,-0.46
2023-02-14T00:33:37.897Z,-0.59
2023-02-14T00:36:07.077Z,-0.57
2023-02-14T00:38:34.886Z,-0.62
2023-02-14T00:41:02.450Z,-0.73
2023-02-14T00:43:29.628Z,-0.66
2023-02-14T00:45:57.496Z,-0.64
2023-02-14T00:48:24.588Z,-0.64
2023-02-14T00:50:51.512Z,-0.56
2023-02-14T00:53:18.362Z,-0.65
2023-02-14T00:55:47.070Z,-0.67
2023-02-14T00:58:15.089Z,-0.62
2023-02-14T01:00:41.994Z,-0.72
2023-02-14T01:03:08.993Z,-0.68
2023-02-14T01:05:35.982Z,-0.55
2023-02-14T01:08:04.740Z,-0.64
2023-02-14T01:10:31.879Z,-0.58
2023-02-14T01:12:58.996Z,-0.52
2023-02-14T01:15:27.676Z,-0.52
2023-02-14T01:17:54.536Z,-0.53
2023-02-14T01:20:22.131Z,-0.49
2023-02-14T01:22:49.025Z,-0.51
2023-02-14T01:25:16.343Z,-0.46
2023-02-14T01:27:43.278Z,-0.45
2023-02-14T01:30:11.262Z,-0.36
2023-02-14T01:32:38.106Z,-0.29
2023-02-14T01:35:05.285Z,-0.32
2023-02-14T01:37:32.215Z,-0.21
2023-02-14T01:39:59.448Z,-0.14
2023-02-14T01:42:27.568Z,-0.20
2023-02-14T01:44:59.796Z,-0.17
2023-02-14T01:47:28.964Z,-0.13
2023-02-14T01:50:00.213Z,-0.21
2023-02-14T01:52:34.946Z,-0.12
2023-02-14T01:55:08.535Z,-0.14
2023-02-14T01:57:46.455Z,-0.10
2023-02-14T02:00:32.827Z,-0.02
2023-02-14T02:03:01.211Z,-0.09
2023-02-14T02:05:28.177Z,0.02
2023-02-14T02:07:59.117Z,-0.03
2023-02-14T02:10:28.156Z,-0.01
2023-02-14T02:13:00.010Z,0.04
2023-02-14T02:15:31.292Z,0.02
2023-02-14T02:18:19.837Z,0.05
2023-02-14T02:21:16.730Z,0.10
2023-02-14T02:23:54.729Z,-0.03
2023-02-14T02:26:49.484Z,0.01
2023-02-14T02:29:53.937Z,-0.17
2023-02-14T02:32:48.803Z,-0.18
2023-02-14T02:35:21.611Z,-0.19
2023-02-14T02:38:07.353Z,-0.29
2023-02-14T02:40:46.566Z,-0.23
2023-02-14T02:43:49.548Z,-0.29
2023-02-14T02:46:42.960Z,-0.30
2023-02-14T02:49:47.375Z,-0.37
2023-02-14T02:52:46.864Z,-0.46
2023-02-14T02:55:21.546Z,-0.40
2023-02-14T02:57:51.571Z,-0.49
2023-02-14T03:00:21.604Z,-0.42
2023-02-14T03:03:11.386Z,-0.38
2023-02-14T03:05:38.701Z,-0.48
2023-02-14T03:08:06.117Z,-0.40
2023-02-14T03:10:38.192Z,-0.53
2023-02-14T03:28:20.009Z,-1.15
2023-02-14T03:31:11.481Z,-1.03
2023-02-14T03:34:07.111Z,-1.00
2023-02-14T03:36:38.279Z,-0.91
2023-02-14T03:39:16.374Z,-0.93
2023-02-14T03:41:53.546Z,-0.81
2023-02-14T03:44:25.937Z,-0.99
2023-02-14T03:46:58.779Z,-1.01
2023-02-14T03:49:31.114Z,-0.97
2023-02-14T03:52:01.155Z,-1.02
2023-02-14T03:54:30.509Z,-0.99
2023-02-14T03:57:20.847Z,-1.12
2023-02-14T03:59:48.861Z,-1.09
2023-02-14T04:02:30.337Z,-1.13
2023-02-14T04:08:08.671Z,-1.08
2023-02-14T04:10:35.860Z,-1.16
2023-02-14T04:13:02.823Z,-1.13
2023-02-14T04:15:29.901Z,-1.12
2023-02-14T04:18:15.459Z,-1.14
2023-02-14T04:20:42.336Z,-1.07
2023-02-14T04:23:09.237Z,-1.19
2023-02-14T04:25:36.195Z,-1.18
2023-02-14T04:28:02.977Z,-1.15
2023-02-14T04:30:29.824Z,-1.21
2023-02-14T04:32:57.012Z,-1.22
2023-02-14T04:35:23.885Z,-1.16
2023-02-14T04:37:50.765Z,-1.19
2023-02-14T04:40:17.670Z,-1.13
2023-02-14T04:42:45.762Z,-1.12
2023-02-14T04:45:13.424Z,-1.10
2023-02-14T04:47:40.476Z,-1.01
2023-02-14T04:50:07.929Z,-1.08
2023-02-14T04:52:34.802Z,-1.03
2023-02-14T04:55:01.915Z,-1.10
2023-02-14T04:57:29.554Z,-1.10
2023-02-14T04:59:56.434Z,-1.04
2023-02-14T05:02:23.552Z,-1.07
2023-02-14T05:04:50.717Z,-1.03
2023-02-14T05:07:17.812Z,-0.98
2023-02-14T05:09:44.716Z,-1.05
2023-02-14T05:12:11.651Z,-0.94
2023-02-14T05:14:38.552Z,-0.91
2023-02-14T05:17:05.406Z,-0.89
2023-02-14T05:19:32.497Z,-0.75
2023-02-14T05:21:59.411Z,-0.78
2023-02-14T05:24:26.399Z,-0.66
2023-02-14T05:26:53.196Z,-0.56
2023-02-14T05:29:20.146Z,-0.55
2023-02-14T05:31:47.184Z,-0.41
2023-02-14T05:34:14.092Z,-0.28
2023-02-14T05:36:40.951Z,-0.23
2023-02-14T05:39:07.789Z,0.04
2023-02-14T05:41:34.702Z,0.21
2023-02-14T05:44:02.014Z,0.33
2023-02-14T05:46:28.990Z,0.74
2023-02-14T05:48:55.835Z,0.58
2023-02-14T05:51:22.678Z,0.69
2023-02-14T05:53:49.592Z,1.09
2023-02-14T05:56:16.543Z,1.03
2023-02-14T05:58:44.114Z,1.36
2023-02-14T06:01:11.107Z,2.16
2023-02-14T06:03:38.049Z,2.11
2023-02-14T06:06:05.153Z,2.60
2023-02-14T06:08:32.095Z,3.89
2023-02-14T06:10:59.283Z,2.59
2023-02-14T06:13:26.286Z,3.00
2023-02-14T06:15:53.126Z,4.09
2023-02-14T06:18:20.054Z,3.07
2023-02-14T06:20:46.826Z,3.55
2023-02-14T06:23:13.780Z,5.46
2023-02-14T06:25:40.632Z,4.21
2023-02-14T06:28:07.522Z,2.85
2023-02-14T06:30:34.520Z,3.68
2023-02-14T06:33:01.555Z,3.83
2023-02-14T06:35:28.571Z,2.63
2023-02-14T06:37:55.459Z,3.50
2023-02-14T06:40:22.455Z,3.86
2023-02-14T06:42:49.362Z,2.61
2023-02-14T06:45:16.507Z,3.30
2023-02-14T06:47:43.331Z,4.49
2023-02-14T06:50:11.827Z,3.58
2023-02-14T06:52:44.741Z,3.76
2023-02-14T06:55:13.937Z,4.82
2023-02-14T06:57:40.865Z,4.62
2023-02-14T07:00:08.816Z,3.99
2023-02-14T07:02:35.781Z,5.09
2023-02-14T07:05:02.748Z,5.88
2023-02-14T07:07:29.591Z,4.88
2023-02-14T07:09:56.483Z,4.82
2023-02-14T07:12:23.362Z,5.81
2023-02-14T07:14:50.310Z,7.11
2023-02-14T07:17:17.184Z,5.94
2023-02-14T07:19:44.011Z,6.69
2023-02-14T07:22:11.011Z,6.31
2023-02-14T07:24:37.865Z,5.56
2023-02-14T07:27:04.749Z,4.30
2023-02-14T07:29:31.608Z,4.49
2023-02-14T07:31:58.689Z,6.38
2023-02-14T07:34:27.270Z,5.71
2023-02-14T07:36:54.195Z,7.17
2023-02-14T07:39:21.076Z,8.57
2023-02-14T07:41:50.843Z,10.08
2023-02-14T07:44:20.358Z,9.92
2023-02-14T07:46:47.285Z,9.97
2023-02-14T07:49:14.357Z,11.00
2023-02-14T07:51:41.442Z,10.73
2023-02-14T07:54:08.300Z,11.14
2023-02-14T07:56:35.383Z,10.78
2023-02-14T07:59:02.285Z,11.51
2023-02-14T08:01:29.201Z,8.88
2023-02-14T08:03:56.128Z,9.34
2023-02-14T08:06:22.981Z,11.32
2023-02-14T08:08:49.899Z,11.23
2023-02-14T08:11:36.687Z,11.57
2023-02-14T08:14:04.927Z,12.76
2023-02-14T08:16:34.394Z,13.87
2023-02-14T08:19:02.117Z,14.26
2023-02-14T08:21:29.212Z,14.59
2023-02-14T08:23:57.057Z,14.12
2023-02-14T08:26:24.062Z,14.72
2023-02-14T08:28:51.168Z,13.72
2023-02-14T08:31:36.442Z,14.06
2023-02-14T08:34:05.613Z,12.25
2023-02-14T08:36:33.028Z,9.64
2023-02-14T08:38:59.965Z,11.77
2023-02-14T08:41:26.779Z,12.88
2023-02-14T08:43:53.608Z,13.58
2023-02-14T08:46:20.567Z,14.69
2023-02-14T08:48:47.633Z,15.01
2023-02-14T08:51:15.152Z,14.04
2023-02-14T08:53:43.201Z,14.56
2023-02-14T08:56:13.662Z,13.62
2023-02-14T08:58:41.021Z,10.58
2023-02-14T09:01:14.066Z,12.59
2023-02-14T09:03:42.111Z,13.06
2023-02-14T09:06:12.420Z,14.85
2023-02-14T09:08:39.672Z,15.01
2023-02-14T09:11:22.355Z,16.16
2023-02-14T09:13:51.423Z,15.16
2023-02-14T09:16:19.366Z,13.61
2023-02-14T09:18:47.609Z,15.30
2023-02-14T09:21:17.474Z,16.93
2023-02-14T09:23:44.790Z,16.80
2023-02-14T09:26:14.130Z,16.61
2023-02-14T09:28:41.481Z,13.47
2023-02-14T09:31:11.376Z,13.98
2023-02-14T09:33:57.014Z,15.89
2023-02-14T09:36:42.606Z,17.74
2023-02-14T09:39:10.509Z,16.96
2023-02-14T09:41:40.093Z,15.00
2023-02-14T09:44:40.056Z,14.56
2023-02-14T09:47:18.946Z,16.60
2023-02-14T09:49:49.936Z,17.89
2023-02-14T09:52:20.126Z,17.48
2023-02-14T09:54:53.366Z,15.31
2023-02-14T09:57:22.997Z,14.32
2023-02-14T10:00:00.424Z,18.01
2023-02-14T10:02:30.415Z,18.79
2023-02-14T10:05:11.591Z,18.70
2023-02-14T10:08:16.897Z,15.65
2023-02-14T10:10:48.425Z,13.50
2023-02-14T10:13:38.235Z,17.74
2023-02-14T10:16:26.654Z,19.64
2023-02-14T10:19:01.659Z,17.98
2023-02-14T10:21:51.703Z,15.32
2023-02-14T10:24:30.069Z,16.66
2023-02-14T10:29:44.850Z,20.69
2023-02-14T10:32:15.411Z,20.01
2023-02-14T10:34:51.631Z,15.48
2023-02-14T10:37:33.086Z,17.51
2023-02-14T10:40:34.050Z,20.80
2023-02-14T10:43:48.026Z,21.06
2023-02-14T10:46:18.295Z,15.38
2023-02-14T10:49:01.056Z,17.14
2023-02-14T10:51:44.971Z,18.67
2023-02-14T10:54:22.644Z,18.97
2023-02-14T10:56:59.258Z,18.30
2023-02-14T11:00:28.058Z,16.13
2023-02-14T11:02:58.236Z,18.83
2023-02-14T11:05:34.446Z,19.23
2023-02-14T11:08:02.081Z,18.88
2023-02-14T11:10:34.235Z,13.92
2023-02-14T11:13:01.198Z,14.90
2023-02-14T11:15:35.733Z,13.43
2023-02-14T11:18:23.114Z,14.61
2023-02-14T11:21:04.356Z,15.63
2023-02-14T11:23:37.722Z,12.77
2023-02-14T11:26:10.434Z,15.22
2023-02-14T11:28:50.447Z,16.81
2023-02-14T11:31:26.880Z,18.48
2023-02-14T11:33:54.520Z,15.71
2023-02-14T11:36:21.823Z,16.10
2023-02-14T11:38:58.443Z,16.38
2023-02-14T11:41:26.111Z,17.66
2023-02-14T11:44:09.560Z,19.31
2023-02-14T11:46:51.072Z,15.11
2023-02-14T11:49:34.202Z,15.61
2023-02-14T11:52:16.351Z,16.85
2023-02-14T11:54:45.062Z,19.57
2023-02-14T11:57:27.909Z,16.91
2023-02-14T11:59:59.869Z,14.69
2023-02-14T12:02:32.937Z,17.87
2023-02-14T12:05:22.163Z,17.55
2023-02-14T12:07:52.457Z,18.94
2023-02-14T12:10:23.332Z,15.47
2023-02-14T12:12:56.730Z,16.21
2023-02-14T12:15:37.651Z,16.98
2023-02-14T12:18:26.141Z,17.17
2023-02-14T12:21:21.547Z,15.51
2023-02-14T12:24:00.470Z,12.17
2023-02-14T12:26:36.360Z,11.59
2023-02-14T12:29:09.279Z,11.50
2023-02-14T12:31:36.226Z,10.82
2023-02-14T12:34:04.571Z,10.02
2023-02-14T12:36:58.036Z,10.27
2023-02-14T12:39:24.837Z,10.63
2023-02-14T12:42:11.786Z,10.84
2023-02-14T12:45:03.116Z,9.81
2023-02-14T12:47:33.130Z,9.67
2023-02-14T12:50:23.636Z,10.09
2023-02-14T12:52:56.708Z,9.97
2023-02-14T12:55:55.812Z,9.45
2023-02-14T12:58:29.006Z,9.17
2023-02-14T13:01:29.087Z,9.49
2023-02-14T13:04:30.623Z,9.52
2023-02-14T13:07:22.412Z,9.20
2023-02-14T13:10:05.912Z,8.82
2023-02-14T13:12:44.842Z,8.97
2023-02-14T13:15:33.662Z,9.11
2023-02-14T13:18:07.534Z,8.58
2023-02-14T13:20:44.756Z,8.08
2023-02-14T13:23:28.737Z,8.27
2023-02-14T13:26:03.860Z,8.46
2023-02-14T13:28:31.695Z,8.18
2023-02-14T13:31:00.942Z,8.01
2023-02-14T13:33:38.150Z,8.26
2023-02-14T13:36:12.366Z,8.65
2023-02-14T13:38:45.935Z,8.72
2023-02-14T13:41:15.602Z,8.25
2023-02-14T13:43:51.121Z,8.44
2023-02-14T13:46:30.515Z,8.65
2023-02-14T13:49:04.543Z,8.92
2023-02-14T13:51:53.578Z,8.63
2023-02-14T13:54:40.856Z,8.77
2023-02-14T13:57:31.717Z,9.00
2023-02-14T14:00:17.449Z,8.87
2023-02-14T14:02:56.185Z,8.54
2023-02-14T14:05:42.818Z,8.52
2023-02-14T14:08:25.142Z,8.61
2023-02-14T14:10:56.670Z,8.55
2023-02-14T14:13:42.247Z,7.83
2023-02-14T14:16:25.662Z,8.10
2023-02-14T14:19:00.282Z,8.22
2023-02-14T14:21:44.734Z,8.26
2023-02-14T14:24:26.262Z,7.83
2023-02-14T14:27:12.971Z,8.04
2023-02-14T14:30:04.083Z,8.03
2023-02-14T14:32:36.578Z,8.08
2023-02-14T14:35:16.872Z,7.42
2023-02-14T14:37:50.111Z,7.58
2023-02-14T14:40:25.120Z,7.50
2023-02-14T14:42:53.216Z,7.47
2023-02-14T14:45:26.457Z,7.15
2023-02-14T14:47:56.668Z,7.14
2023-02-14T14:50:29.786Z,7.13
2023-02-14T14:53:11.733Z,7.03
2023-02-14T14:55:44.835Z,6.87
2023-02-14T14:58:33.885Z,6.98
2023-02-14T15:01:00.981Z,6.94
2023-02-14T15:03:29.393Z,6.72
2023-02-14T15:06:22.896Z,6.61
2023-02-14T15:08:52.573Z,6.70
2023-02-14T15:11:47.742Z,6.74
2023-02-14T15:30:03.977Z,5.80
2023-02-14T15:32:34.605Z,5.88
2023-02-14T15:35:04.473Z,5.92
2023-02-14T15:37:31.816Z,5.98
2023-02-14T15:39:59.980Z,6.14
2023-02-14T15:42:33.763Z,6.13
2023-02-14T15:45:17.002Z,6.01
2023-02-14T15:47:47.686Z,5.98
2023-02-14T15:50:25.260Z,5.96
2023-02-14T15:53:02.904Z,5.95
2023-02-14T15:55:31.013Z,5.72
2023-02-14T15:58:07.445Z,5.62
2023-02-14T16:00:35.572Z,5.73
2023-02-14T16:03:07.451Z,5.61
2023-02-14T16:05:34.844Z,5.39
2023-02-14T16:08:08.133Z,5.38
2023-02-14T16:10:37.270Z,5.47
2023-02-14T16:13:09.359Z,5.44
2023-02-14T16:15:38.700Z,5.39
2023-02-14T16:18:33.715Z,5.55
2023-02-14T16:21:21.102Z,5.65
2023-02-14T16:24:08.105Z,5.35
2023-02-14T16:26:38.104Z,5.56
2023-02-14T16:29:06.932Z,5.79
2023-02-14T16:31:34.591Z,5.85
2023-02-14T16:34:01.983Z,5.71
2023-02-14T16:36:34.058Z,5.77
2023-02-14T16:39:05.715Z,5.92
2023-02-14T16:41:34.576Z,5.83
2023-02-14T16:44:01.594Z,5.59
2023-02-14T16:46:35.270Z,5.70
2023-02-14T16:49:02.319Z,5.93
2023-02-14T16:51:32.967Z,5.72
2023-02-14T16:54:04.129Z,5.75
2023-02-14T16:56:38.517Z,5.81
2023-02-14T16:59:05.295Z,5.86
2023-02-14T17:01:32.765Z,5.63
2023-02-14T17:04:00.302Z,5.82
2023-02-14T17:06:30.581Z,5.93
2023-02-14T17:09:00.567Z,5.84
2023-02-14T17:11:29.973Z,5.81
2023-02-14T17:13:57.097Z,5.95
2023-02-14T17:16:24.066Z,6.09
2023-02-14T17:18:52.105Z,5.83
2023-02-14T17:21:23.321Z,5.88
2023-02-14T17:23:50.270Z,5.99
2023-02-14T17:26:18.867Z,5.82
2023-02-14T17:28:46.671Z,5.56
2023-02-14T17:31:14.386Z,5.69
2023-02-14T17:33:41.406Z,5.70
2023-02-14T17:36:13.148Z,5.74
2023-02-14T17:38:43.529Z,5.71
2023-02-14T17:41:18.746Z,5.59
2023-02-14T17:43:46.275Z,5.51
2023-02-14T17:46:16.362Z,5.64
2023-02-14T17:48:46.250Z,5.74
2023-02-14T17:51:14.885Z,5.91
2023-02-14T17:53:42.394Z,5.96
2023-02-14T17:56:14.865Z,5.72
2023-02-14T17:58:41.840Z,5.69
2023-02-14T18:01:11.485Z,5.72
2023-02-14T18:03:39.183Z,5.74
2023-02-14T18:06:06.845Z,5.85
2023-02-14T18:08:39.592Z,5.63
2023-02-14T18:11:08.524Z,5.64
2023-02-14T18:13:35.794Z,5.77
2023-02-14T18:16:05.813Z,5.90
2023-02-14T18:18:32.888Z,5.82
2023-02-14T18:21:02.215Z,5.68
2023-02-14T18:23:31.288Z,5.54
2023-02-14T18:26:09.950Z,5.61
2023-02-14T18:28:37.103Z,5.66
2023-02-14T18:31:09.020Z,5.67
2023-02-14T18:33:36.858Z,5.46
2023-02-14T18:36:12.275Z,5.60
2023-02-14T18:38:40.403Z,5.65
2023-02-14T18:41:09.569Z,5.61
2023-02-14T18:43:36.936Z,5.75
2023-02-14T18:46:16.522Z,5.42
2023-02-14T18:48:44.073Z,5.45
2023-02-14T18:51:31.550Z,5.34
2023-02-14T18:53:59.954Z,5.34
2023-02-14T18:56:34.169Z,5.33
2023-02-14T18:59:04.148Z,5.00
2023-02-14T19:01:44.196Z,5.02
2023-02-14T19:04:13.361Z,5.06
2023-02-14T19:06:41.844Z,5.05
2023-02-14T19:09:11.348Z,4.82
2023-02-14T19:11:39.397Z,4.87
2023-02-14T19:14:10.141Z,5.00
2023-02-14T19:16:53.597Z,4.96
2023-02-14T19:19:20.513Z,4.80
2023-02-14T19:21:47.629Z,4.83
2023-02-14T19:24:18.538Z,4.86
2023-02-14T19:26:46.580Z,4.72
2023-02-14T19:29:15.858Z,4.52
2023-02-14T19:31:45.449Z,4.60
2023-02-14T19:34:29.929Z,4.64
2023-02-14T19:36:59.829Z,4.51
2023-02-14T19:39:31.300Z,4.43
2023-02-14T19:41:59.504Z,4.46
2023-02-14T19:44:28.806Z,4.54
2023-02-14T19:46:56.674Z,4.44
2023-02-14T19:49:23.835Z,4.41
2023-02-14T19:51:53.526Z,4.51
2023-02-14T19:54:25.675Z,4.49
2023-02-14T19:56:53.953Z,4.35
2023-02-14T19:59:22.747Z,4.30
2023-02-14T20:01:52.264Z,4.40
2023-02-14T20:04:23.162Z,4.40
2023-02-14T20:06:51.207Z,4.28
2023-02-14T20:09:19.311Z,4.29
2023-02-14T20:11:51.730Z,4.35
2023-02-14T20:14:20.033Z,4.37
2023-02-14T20:16:47.926Z,4.14
2023-02-14T20:19:17.652Z,4.13
2023-02-14T20:21:46.161Z,4.18
2023-02-14T20:24:16.438Z,4.05
2023-02-14T20:26:43.640Z,3.93
2023-02-14T20:29:11.259Z,4.01
2023-02-14T20:31:45.216Z,4.07
2023-02-14T20:34:13.324Z,4.04
2023-02-14T20:36:41.562Z,3.96
2023-02-14T20:39:10.701Z,4.00
2023-02-14T20:41:37.910Z,4.14
2023-02-14T20:44:08.115Z,3.98
2023-02-14T20:46:35.722Z,3.98
2023-02-14T20:49:05.544Z,4.14
2023-02-14T20:51:33.339Z,4.19
2023-02-14T20:54:03.097Z,4.13
2023-02-14T20:56:30.306Z,4.06
2023-02-14T20:58:57.146Z,4.07
2023-02-14T21:01:25.155Z,4.18
2023-02-14T21:03:53.776Z,4.09
2023-02-14T21:06:23.065Z,4.16
2023-02-14T21:08:50.461Z,4.31
2023-02-14T21:11:19.188Z,4.35
2023-02-14T21:13:46.781Z,4.29
2023-02-14T21:16:16.387Z,4.15
2023-02-14T21:18:47.968Z,4.33
2023-02-14T21:21:26.077Z,4.31
2023-02-14T21:23:53.435Z,4.43
2023-02-14T21:26:21.487Z,4.19
2023-02-14T21:28:48.531Z,4.26
2023-02-14T21:31:18.140Z,4.33
2023-02-14T21:33:45.077Z,4.31
2023-02-14T21:36:14.089Z,4.36
2023-02-14T21:38:41.769Z,4.27
2023-02-14T21:41:11.414Z,3.98
2023-02-14T21:43:41.045Z,4.05
2023-02-14T21:46:10.786Z,4.14
2023-02-14T21:48:56.794Z,4.09
2023-02-14T21:51:23.856Z,3.87
2023-02-14T21:53:51.618Z,3.89
2023-02-14T21:56:22.811Z,4.07
2023-02-14T21:58:52.187Z,3.93
2023-02-14T22:01:22.550Z,3.89
2023-02-14T22:03:50.038Z,4.06
2023-02-14T22:06:17.374Z,4.21
2023-02-14T22:08:44.744Z,4.08
2023-02-14T22:11:15.006Z,4.11
2023-02-14T22:13:42.914Z,4.35
2023-02-14T22:16:15.829Z,4.51
2023-02-14T22:18:42.894Z,4.18
2023-02-14T22:21:14.405Z,4.23
2023-02-14T22:23:41.702Z,4.43
2023-02-14T22:26:14.321Z,4.46
2023-02-14T22:28:42.672Z,4.21
2023-02-14T22:31:10.189Z,4.30
2023-02-14T22:33:38.012Z,4.39
2023-02-14T22:36:06.319Z,4.46
2023-02-14T22:38:34.562Z,4.07
2023-02-14T22:41:12.675Z,4.05
2023-02-14T22:43:41.092Z,4.19
2023-02-14T22:46:11.458Z,4.14
2023-02-14T22:48:39.369Z,3.92
2023-02-14T22:51:27.851Z,3.91
2023-02-14T22:54:06.137Z,3.99
2023-02-14T22:56:35.703Z,3.85
2023-02-14T22:59:06.344Z,3.89
2023-02-14T23:01:35.499Z,4.00
2023-02-14T23:04:03.804Z,4.11
2023-02-14T23:06:33.351Z,4.08
2023-02-14T23:09:00.866Z,4.00
2023-02-14T23:11:30.624Z,4.17
2023-02-14T23:14:16.824Z,4.30
2023-02-14T23:17:02.912Z,4.13
2023-02-14T23:19:51.263Z,4.14
2023-02-14T23:22:22.553Z,4.23
2023-02-14T23:24:54.458Z,4.32
2023-02-14T23:27:36.883Z,4.11
2023-02-14T23:30:05.812Z,4.23
2023-02-14T23:32:32.715Z,4.30
2023-02-14T23:34:59.543Z,4.23
2023-02-14T23:37:27.311Z,4.22
2023-02-14T23:39:54.267Z,4.27
2023-02-14T23:42:21.113Z,4.42
2023-02-14T23:44:49.369Z,4.27
2023-02-14T23:47:16.623Z,4.15
2023-02-14T23:49:43.863Z,4.19
2023-02-14T23:52:12.931Z,4.21
2023-02-14T23:54:40.440Z,4.01
2023-02-14T23:57:08.238Z,4.13
2023-02-14T23:59:35.271Z,4.21
